sensor_id;sensor_type;location;lat;lon;timestamp;P1;durP1;ratioP1;P2;durP2;ratioP2
17796;SDS011;55596;53.554;9.916;2023-09-30T00:00:48;25.67;;;6.77;;
17796;SDS011;55596;53.554;9.916;2023-09-30T00:03:15;26.47;;;7.17;;
17796;SDS011;55596;53.554;9.916;2023-09-30T00:05:43;29.73;;;6.93;;
17796;SDS011;55596;53.554;9.916;2023-09-30T00:08:11;22.37;;;6.10;;
17796;SDS011;55596;53.554;9.916;2023-09-30T00:10:39;29.77;;;6.47;;
17796;SDS011;55596;53.554;9.916;2023-09-30T00:13:07;24.73;;;6.20;;
17796;SDS011;55596;53.554;9.916;2023-09-30T00:15:34;22.47;;;6.00;;
17796;SDS011;55596;53.554;9.916;2023-09-30T00:18:02;24.63;;;6.73;;
17796;SDS011;55596;53.554;9.916;2023-09-30T00:20:38;19.70;;;5.70;;
17796;SDS011;55596;53.554;9.916;2023-09-30T00:23:06;26.77;;;7.30;;
17796;SDS011;55596;53.554;9.916;2023-09-30T00:25:36;27.57;;;6.63;;
17796;SDS011;55596;53.554;9.916;2023-09-30T00:28:17;26.07;;;6.63;;
17796;SDS011;55596;53.554;9.916;2023-09-30T00:30:44;22.63;;;6.20;;
17796;SDS011;55596;53.554;9.916;2023-09-30T00:33:12;23.13;;;6.17;;
17796;SDS011;55596;53.554;9.916;2023-09-30T00:35:43;28.87;;;6.90;;
17796;SDS011;55596;53.554;9.916;2023-09-30T00:38:14;30.00;;;6.17;;
17796;SDS011;55596;53.554;9.916;2023-09-30T00:40:51;23.13;;;5.97;;
17796;SDS011;55596;53.554;9.916;2023-09-30T00:43:20;28.20;;;6.00;;
17796;SDS011;55596;53.554;9.916;2023-09-30T00:45:48;29.57;;;6.40;;
17796;SDS011;55596;53.554;9.916;2023-09-30T00:48:16;25.20;;;6.23;;
17796;SDS011;55596;53.554;9.916;2023-09-30T00:50:44;22.90;;;5.57;;
17796;SDS011;55596;53.554;9.916;2023-09-30T00:53:14;22.17;;;5.70;;
17796;SDS011;55596;53.554;9.916;2023-09-30T00:55:43;26.00;;;5.80;;
17796;SDS011;55596;53.554;9.916;2023-09-30T01:00:56;36.47;;;5.77;;
17796;SDS011;55596;53.554;9.916;2023-09-30T01:03:24;26.43;;;5.83;;
17796;SDS011;55596;53.554;9.916;2023-09-30T01:06:06;28.10;;;6.07;;
17796;SDS011;55596;53.554;9.916;2023-09-30T01:08:36;19.50;;;5.40;;
17796;SDS011;55596;53.554;9.916;2023-09-30T01:11:03;22.87;;;5.20;;
17796;SDS011;55596;53.554;9.916;2023-09-30T01:13:34;21.17;;;5.30;;
17796;SDS011;55596;53.554;9.916;2023-09-30T01:16:04;27.00;;;5.33;;
17796;SDS011;55596;53.554;9.916;2023-09-30T01:18:32;21.77;;;5.70;;
17796;SDS011;55596;53.554;9.916;2023-09-30T01:20:59;24.07;;;5.63;;
17796;SDS011;55596;53.554;9.916;2023-09-30T01:23:30;32.63;;;6.00;;
17796;SDS011;55596;53.554;9.916;2023-09-30T01:26:01;22.77;;;5.23;;
17796;SDS011;55596;53.554;9.916;2023-09-30T01:28:30;19.87;;;5.40;;
17796;SDS011;55596;53.554;9.916;2023-09-30T01:30:57;21.73;;;5.57;;
17796;SDS011;55596;53.554;9.916;2023-09-30T01:33:24;22.73;;;5.27;;
17796;SDS011;55596;53.554;9.916;2023-09-30T01:35:52;26.13;;;5.50;;
17796;SDS011;55596;53.554;9.916;2023-09-30T01:38:19;18.60;;;5.27;;
17796;SDS011;55596;53.554;9.916;2023-09-30T01:40:48;22.60;;;5.40;;
17796;SDS011;55596;53.554;9.916;2023-09-30T01:43:15;21.13;;;5.83;;
17796;SDS011;55596;53.554;9.916;2023-09-30T01:45:42;29.57;;;6.20;;
17796;SDS011;55596;53.554;9.916;2023-09-30T01:48:10;23.00;;;5.13;;
17796;SDS011;55596;53.554;9.916;2023-09-30T01:50:38;26.80;;;5.80;;
17796;SDS011;55596;53.554;9.916;2023-09-30T01:53:05;18.50;;;5.43;;
17796;SDS011;55596;53.554;9.916;2023-09-30T01:55:33;24.87;;;5.97;;
17796;SDS011;55596;53.554;9.916;2023-09-30T01:58:02;20.50;;;5.67;;
17796;SDS011;55596;53.554;9.916;2023-09-30T02:00:30;28.37;;;5.43;;
17796;SDS011;55596;53.554;9.916;2023-09-30T02:02:57;25.43;;;5.80;;
17796;SDS011;55596;53.554;9.916;2023-09-30T02:05:25;25.63;;;5.47;;
17796;SDS011;55596;53.554;9.916;2023-09-30T02:07:52;22.67;;;5.60;;
17796;SDS011;55596;53.554;9.916;2023-09-30T02:10:20;24.00;;;5.80;;
17796;SDS011;55596;53.554;9.916;2023-09-30T02:12:47;23.83;;;5.87;;
17796;SDS011;55596;53.554;9.916;2023-09-30T02:15:18;22.00;;;6.30;;
17796;SDS011;55596;53.554;9.916;2023-09-30T02:17:46;23.57;;;5.77;;
17796;SDS011;55596;53.554;9.916;2023-09-30T02:20:14;22.60;;;6.00;;
17796;SDS011;55596;53.554;9.916;2023-09-30T02:22:45;25.30;;;6.40;;
17796;SDS011;55596;53.554;9.916;2023-09-30T02:25:12;23.87;;;6.50;;
17796;SDS011;55596;53.554;9.916;2023-09-30T02:27:39;24.90;;;7.27;;
17796;SDS011;55596;53.554;9.916;2023-09-30T02:30:07;30.07;;;6.23;;
17796;SDS011;55596;53.554;9.916;2023-09-30T02:32:38;25.97;;;6.90;;
17796;SDS011;55596;53.554;9.916;2023-09-30T02:35:06;32.00;;;7.73;;
17796;SDS011;55596;53.554;9.916;2023-09-30T02:37:33;26.20;;;6.67;;
17796;SDS011;55596;53.554;9.916;2023-09-30T02:40:04;23.47;;;6.57;;
17796;SDS011;55596;53.554;9.916;2023-09-30T02:42:34;21.27;;;6.60;;
17796;SDS011;55596;53.554;9.916;2023-09-30T02:45:01;32.30;;;7.10;;
17796;SDS011;55596;53.554;9.916;2023-09-30T02:47:28;23.93;;;6.93;;
17796;SDS011;55596;53.554;9.916;2023-09-30T02:49:58;24.80;;;6.53;;
17796;SDS011;55596;53.554;9.916;2023-09-30T02:52:25;24.77;;;7.30;;
17796;SDS011;55596;53.554;9.916;2023-09-30T02:54:53;26.83;;;6.87;;
17796;SDS011;55596;53.554;9.916;2023-09-30T02:57:23;27.30;;;7.00;;
17796;SDS011;55596;53.554;9.916;2023-09-30T02:59:50;26.13;;;6.73;;
17796;SDS011;55596;53.554;9.916;2023-09-30T03:02:19;28.33;;;7.50;;
17796;SDS011;55596;53.554;9.916;2023-09-30T03:04:47;23.77;;;7.37;;
17796;SDS011;55596;53.554;9.916;2023-09-30T03:07:17;30.20;;;6.50;;
17796;SDS011;55596;53.554;9.916;2023-09-30T03:09:45;28.07;;;7.00;;
17796;SDS011;55596;53.554;9.916;2023-09-30T03:12:12;29.63;;;6.60;;
17796;SDS011;55596;53.554;9.916;2023-09-30T03:14:40;23.47;;;6.57;;
17796;SDS011;55596;53.554;9.916;2023-09-30T03:17:10;22.43;;;7.47;;
17796;SDS011;55596;53.554;9.916;2023-09-30T03:19:37;23.60;;;7.40;;
17796;SDS011;55596;53.554;9.916;2023-09-30T03:22:04;28.70;;;6.73;;
17796;SDS011;55596;53.554;9.916;2023-09-30T03:24:37;28.37;;;7.17;;
17796;SDS011;55596;53.554;9.916;2023-09-30T03:27:04;29.93;;;7.60;;
17796;SDS011;55596;53.554;9.916;2023-09-30T03:29:32;20.43;;;6.60;;
17796;SDS011;55596;53.554;9.916;2023-09-30T03:31:59;35.33;;;8.07;;
17796;SDS011;55596;53.554;9.916;2023-09-30T03:34:26;35.23;;;8.00;;
17796;SDS011;55596;53.554;9.916;2023-09-30T03:36:55;29.50;;;7.63;;
17796;SDS011;55596;53.554;9.916;2023-09-30T03:39:23;32.80;;;8.37;;
17796;SDS011;55596;53.554;9.916;2023-09-30T03:41:53;32.37;;;8.00;;
17796;SDS011;55596;53.554;9.916;2023-09-30T03:44:21;28.67;;;7.50;;
17796;SDS011;55596;53.554;9.916;2023-09-30T03:46:50;30.80;;;8.00;;
17796;SDS011;55596;53.554;9.916;2023-09-30T03:49:17;39.83;;;8.23;;
17796;SDS011;55596;53.554;9.916;2023-09-30T03:51:44;30.40;;;7.97;;
17796;SDS011;55596;53.554;9.916;2023-09-30T03:54:12;29.10;;;8.60;;
17796;SDS011;55596;53.554;9.916;2023-09-30T03:56:39;35.83;;;9.00;;
17796;SDS011;55596;53.554;9.916;2023-09-30T03:59:07;25.97;;;8.57;;
17796;SDS011;55596;53.554;9.916;2023-09-30T04:01:35;37.90;;;9.37;;
17796;SDS011;55596;53.554;9.916;2023-09-30T04:04:05;28.53;;;9.20;;
17796;SDS011;55596;53.554;9.916;2023-09-30T04:06:34;30.57;;;8.73;;
17796;SDS011;55596;53.554;9.916;2023-09-30T04:09:03;29.40;;;8.80;;
17796;SDS011;55596;53.554;9.916;2023-09-30T04:11:35;28.00;;;9.37;;
17796;SDS011;55596;53.554;9.916;2023-09-30T04:14:02;29.60;;;10.13;;
17796;SDS011;55596;53.554;9.916;2023-09-30T04:16:31;36.13;;;9.77;;
17796;SDS011;55596;53.554;9.916;2023-09-30T04:18:58;32.13;;;9.30;;
17796;SDS011;55596;53.554;9.916;2023-09-30T04:21:25;29.37;;;9.93;;
17796;SDS011;55596;53.554;9.916;2023-09-30T04:23:55;39.67;;;10.00;;
17796;SDS011;55596;53.554;9.916;2023-09-30T04:26:24;41.47;;;10.07;;
17796;SDS011;55596;53.554;9.916;2023-09-30T04:28:51;28.57;;;8.80;;
17796;SDS011;55596;53.554;9.916;2023-09-30T04:31:19;40.63;;;10.10;;
17796;SDS011;55596;53.554;9.916;2023-09-30T04:33:49;36.30;;;9.53;;
17796;SDS011;55596;53.554;9.916;2023-09-30T04:36:17;30.87;;;9.97;;
17796;SDS011;55596;53.554;9.916;2023-09-30T04:38:45;34.77;;;9.17;;
17796;SDS011;55596;53.554;9.916;2023-09-30T04:41:12;30.10;;;8.93;;
17796;SDS011;55596;53.554;9.916;2023-09-30T04:43:41;29.20;;;9.63;;
17796;SDS011;55596;53.554;9.916;2023-09-30T04:46:08;36.43;;;8.67;;
17796;SDS011;55596;53.554;9.916;2023-09-30T04:48:37;30.93;;;9.43;;
17796;SDS011;55596;53.554;9.916;2023-09-30T04:51:07;34.60;;;9.57;;
17796;SDS011;55596;53.554;9.916;2023-09-30T04:53:36;30.27;;;8.83;;
17796;SDS011;55596;53.554;9.916;2023-09-30T04:56:03;35.40;;;8.43;;
17796;SDS011;55596;53.554;9.916;2023-09-30T04:58:30;26.30;;;8.17;;
17796;SDS011;55596;53.554;9.916;2023-09-30T05:00:57;26.33;;;7.90;;
17796;SDS011;55596;53.554;9.916;2023-09-30T05:03:25;29.17;;;10.13;;
17796;SDS011;55596;53.554;9.916;2023-09-30T05:05:52;30.83;;;9.00;;
17796;SDS011;55596;53.554;9.916;2023-09-30T05:08:22;32.90;;;8.17;;
17796;SDS011;55596;53.554;9.916;2023-09-30T05:10:49;33.43;;;8.23;;
17796;SDS011;55596;53.554;9.916;2023-09-30T05:13:18;22.80;;;8.03;;
17796;SDS011;55596;53.554;9.916;2023-09-30T05:15:45;33.40;;;8.83;;
17796;SDS011;55596;53.554;9.916;2023-09-30T05:18:13;24.83;;;7.93;;
17796;SDS011;55596;53.554;9.916;2023-09-30T05:20:40;26.47;;;7.23;;
17796;SDS011;55596;53.554;9.916;2023-09-30T05:23:07;29.40;;;8.30;;
17796;SDS011;55596;53.554;9.916;2023-09-30T05:25:39;30.07;;;8.20;;
17796;SDS011;55596;53.554;9.916;2023-09-30T05:28:07;29.53;;;8.77;;
17796;SDS011;55596;53.554;9.916;2023-09-30T05:30:34;26.03;;;7.23;;
17796;SDS011;55596;53.554;9.916;2023-09-30T05:33:02;33.37;;;7.50;;
17796;SDS011;55596;53.554;9.916;2023-09-30T05:35:29;31.33;;;7.67;;
17796;SDS011;55596;53.554;9.916;2023-09-30T05:37:57;25.50;;;7.73;;
17796;SDS011;55596;53.554;9.916;2023-09-30T05:40:24;26.77;;;8.03;;
17796;SDS011;55596;53.554;9.916;2023-09-30T05:42:53;23.33;;;8.03;;
17796;SDS011;55596;53.554;9.916;2023-09-30T05:45:23;28.90;;;8.07;;
17796;SDS011;55596;53.554;9.916;2023-09-30T05:47:51;31.77;;;7.83;;
17796;SDS011;55596;53.554;9.916;2023-09-30T05:50:19;26.23;;;7.57;;
17796;SDS011;55596;53.554;9.916;2023-09-30T05:52:50;25.33;;;8.23;;
17796;SDS011;55596;53.554;9.916;2023-09-30T05:55:17;26.57;;;8.23;;
17796;SDS011;55596;53.554;9.916;2023-09-30T05:57:47;26.50;;;8.27;;
17796;SDS011;55596;53.554;9.916;2023-09-30T06:00:18;23.77;;;7.90;;
17796;SDS011;55596;53.554;9.916;2023-09-30T06:02:53;24.50;;;7.77;;
17796;SDS011;55596;53.554;9.916;2023-09-30T06:05:20;26.13;;;8.30;;
17796;SDS011;55596;53.554;9.916;2023-09-30T06:07:47;25.90;;;7.83;;
17796;SDS011;55596;53.554;9.916;2023-09-30T06:10:14;39.23;;;9.33;;
17796;SDS011;55596;53.554;9.916;2023-09-30T06:12:43;23.50;;;7.57;;
17796;SDS011;55596;53.554;9.916;2023-09-30T06:15:11;30.30;;;8.47;;
17796;SDS011;55596;53.554;9.916;2023-09-30T06:17:40;30.53;;;9.00;;
17796;SDS011;55596;53.554;9.916;2023-09-30T06:20:08;26.27;;;8.33;;
17796;SDS011;55596;53.554;9.916;2023-09-30T06:22:41;24.77;;;7.77;;
17796;SDS011;55596;53.554;9.916;2023-09-30T06:25:10;31.90;;;8.63;;
17796;SDS011;55596;53.554;9.916;2023-09-30T06:27:37;27.73;;;8.73;;
17796;SDS011;55596;53.554;9.916;2023-09-30T06:30:05;25.80;;;8.50;;
17796;SDS011;55596;53.554;9.916;2023-09-30T06:32:34;33.50;;;8.80;;
17796;SDS011;55596;53.554;9.916;2023-09-30T06:35:04;35.23;;;8.17;;
17796;SDS011;55596;53.554;9.916;2023-09-30T06:37:35;26.30;;;8.33;;
17796;SDS011;55596;53.554;9.916;2023-09-30T06:40:02;30.27;;;8.90;;
17796;SDS011;55596;53.554;9.916;2023-09-30T06:42:30;35.60;;;8.73;;
17796;SDS011;55596;53.554;9.916;2023-09-30T06:44:57;30.83;;;9.40;;
17796;SDS011;55596;53.554;9.916;2023-09-30T06:47:24;23.63;;;8.27;;
17796;SDS011;55596;53.554;9.916;2023-09-30T06:49:52;33.77;;;9.13;;
17796;SDS011;55596;53.554;9.916;2023-09-30T06:52:20;21.70;;;7.70;;
17796;SDS011;55596;53.554;9.916;2023-09-30T06:54:47;22.30;;;8.83;;
17796;SDS011;55596;53.554;9.916;2023-09-30T06:57:15;27.83;;;8.60;;
17796;SDS011;55596;53.554;9.916;2023-09-30T06:59:42;22.60;;;7.43;;
17796;SDS011;55596;53.554;9.916;2023-09-30T07:02:09;26.73;;;8.17;;
17796;SDS011;55596;53.554;9.916;2023-09-30T07:04:38;26.07;;;7.40;;
17796;SDS011;55596;53.554;9.916;2023-09-30T07:07:08;30.83;;;7.70;;
17796;SDS011;55596;53.554;9.916;2023-09-30T07:09:36;18.40;;;6.90;;
17796;SDS011;55596;53.554;9.916;2023-09-30T07:12:04;22.60;;;6.63;;
17796;SDS011;55596;53.554;9.916;2023-09-30T07:14:31;22.60;;;6.63;;
17796;SDS011;55596;53.554;9.916;2023-09-30T07:16:58;20.20;;;6.37;;
17796;SDS011;55596;53.554;9.916;2023-09-30T07:19:29;21.50;;;6.37;;
17796;SDS011;55596;53.554;9.916;2023-09-30T07:21:56;25.10;;;6.67;;
17796;SDS011;55596;53.554;9.916;2023-09-30T07:24:24;26.33;;;6.80;;
17796;SDS011;55596;53.554;9.916;2023-09-30T07:26:52;28.23;;;6.47;;
17796;SDS011;55596;53.554;9.916;2023-09-30T07:29:20;17.93;;;5.63;;
17796;SDS011;55596;53.554;9.916;2023-09-30T07:31:48;20.73;;;6.30;;
17796;SDS011;55596;53.554;9.916;2023-09-30T07:34:16;20.63;;;6.20;;
17796;SDS011;55596;53.554;9.916;2023-09-30T07:36:43;22.90;;;6.33;;
17796;SDS011;55596;53.554;9.916;2023-09-30T07:39:10;17.47;;;5.73;;
17796;SDS011;55596;53.554;9.916;2023-09-30T07:41:37;20.47;;;5.53;;
17796;SDS011;55596;53.554;9.916;2023-09-30T07:44:06;20.77;;;6.20;;
17796;SDS011;55596;53.554;9.916;2023-09-30T07:46:35;18.33;;;4.93;;
17796;SDS011;55596;53.554;9.916;2023-09-30T07:49:02;15.07;;;4.60;;
17796;SDS011;55596;53.554;9.916;2023-09-30T07:51:32;20.10;;;5.27;;
17796;SDS011;55596;53.554;9.916;2023-09-30T07:54:00;17.57;;;4.73;;
17796;SDS011;55596;53.554;9.916;2023-09-30T07:56:28;17.70;;;4.20;;
17796;SDS011;55596;53.554;9.916;2023-09-30T07:58:55;18.10;;;5.40;;
17796;SDS011;55596;53.554;9.916;2023-09-30T08:01:24;13.17;;;4.63;;
17796;SDS011;55596;53.554;9.916;2023-09-30T08:03:51;14.33;;;4.43;;
17796;SDS011;55596;53.554;9.916;2023-09-30T08:06:18;20.87;;;4.60;;
17796;SDS011;55596;53.554;9.916;2023-09-30T08:08:45;14.70;;;4.33;;
17796;SDS011;55596;53.554;9.916;2023-09-30T08:11:12;16.17;;;3.87;;
17796;SDS011;55596;53.554;9.916;2023-09-30T08:13:40;15.07;;;4.73;;
17796;SDS011;55596;53.554;9.916;2023-09-30T08:16:07;15.23;;;4.07;;
17796;SDS011;55596;53.554;9.916;2023-09-30T08:18:37;16.40;;;4.00;;
17796;SDS011;55596;53.554;9.916;2023-09-30T08:21:04;17.10;;;4.30;;
17796;SDS011;55596;53.554;9.916;2023-09-30T08:23:35;15.97;;;4.27;;
17796;SDS011;55596;53.554;9.916;2023-09-30T08:26:04;13.83;;;4.27;;
17796;SDS011;55596;53.554;9.916;2023-09-30T08:28:31;14.10;;;3.73;;
17796;SDS011;55596;53.554;9.916;2023-09-30T08:31:01;15.27;;;3.60;;
17796;SDS011;55596;53.554;9.916;2023-09-30T08:33:31;17.30;;;3.93;;
17796;SDS011;55596;53.554;9.916;2023-09-30T08:36:04;16.17;;;3.30;;
17796;SDS011;55596;53.554;9.916;2023-09-30T08:38:33;16.43;;;4.03;;
17796;SDS011;55596;53.554;9.916;2023-09-30T08:41:01;15.00;;;3.43;;
17796;SDS011;55596;53.554;9.916;2023-09-30T08:43:28;11.67;;;3.23;;
17796;SDS011;55596;53.554;9.916;2023-09-30T08:45:57;13.23;;;2.87;;
17796;SDS011;55596;53.554;9.916;2023-09-30T08:48:25;14.07;;;3.73;;
17796;SDS011;55596;53.554;9.916;2023-09-30T08:50:58;15.20;;;3.73;;
17796;SDS011;55596;53.554;9.916;2023-09-30T08:53:35;14.27;;;3.93;;
17796;SDS011;55596;53.554;9.916;2023-09-30T08:56:03;9.90;;;3.33;;
17796;SDS011;55596;53.554;9.916;2023-09-30T08:58:34;14.67;;;3.23;;
17796;SDS011;55596;53.554;9.916;2023-09-30T09:01:03;14.40;;;3.03;;
17796;SDS011;55596;53.554;9.916;2023-09-30T09:03:33;10.03;;;3.07;;
17796;SDS011;55596;53.554;9.916;2023-09-30T09:06:15;13.07;;;3.20;;
17796;SDS011;55596;53.554;9.916;2023-09-30T09:08:54;18.07;;;4.00;;
17796;SDS011;55596;53.554;9.916;2023-09-30T09:11:54;14.00;;;3.20;;
17796;SDS011;55596;53.554;9.916;2023-09-30T09:14:36;15.47;;;3.20;;
17796;SDS011;55596;53.554;9.916;2023-09-30T09:17:06;13.93;;;3.47;;
17796;SDS011;55596;53.554;9.916;2023-09-30T09:19:34;17.87;;;4.17;;
17796;SDS011;55596;53.554;9.916;2023-09-30T09:22:05;12.27;;;3.33;;
17796;SDS011;55596;53.554;9.916;2023-09-30T09:24:35;14.60;;;3.33;;
17796;SDS011;55596;53.554;9.916;2023-09-30T09:27:04;13.47;;;3.57;;
17796;SDS011;55596;53.554;9.916;2023-09-30T09:29:31;19.60;;;3.50;;
17796;SDS011;55596;53.554;9.916;2023-09-30T09:32:11;13.67;;;3.17;;
17796;SDS011;55596;53.554;9.916;2023-09-30T09:34:39;13.03;;;3.20;;
17796;SDS011;55596;53.554;9.916;2023-09-30T09:37:15;13.97;;;3.37;;
17796;SDS011;55596;53.554;9.916;2023-09-30T09:39:52;10.43;;;2.83;;
17796;SDS011;55596;53.554;9.916;2023-09-30T09:42:24;17.33;;;3.60;;
17796;SDS011;55596;53.554;9.916;2023-09-30T09:44:52;12.87;;;2.77;;
17796;SDS011;55596;53.554;9.916;2023-09-30T09:47:21;13.07;;;3.10;;
17796;SDS011;55596;53.554;9.916;2023-09-30T09:49:50;15.20;;;3.37;;
17796;SDS011;55596;53.554;9.916;2023-09-30T09:52:27;14.37;;;3.13;;
17796;SDS011;55596;53.554;9.916;2023-09-30T09:55:01;14.90;;;3.10;;
17796;SDS011;55596;53.554;9.916;2023-09-30T09:57:30;11.00;;;2.70;;
17796;SDS011;55596;53.554;9.916;2023-09-30T09:59:57;14.53;;;3.23;;
17796;SDS011;55596;53.554;9.916;2023-09-30T10:02:39;14.73;;;2.80;;
17796;SDS011;55596;53.554;9.916;2023-09-30T10:05:07;13.17;;;2.83;;
17796;SDS011;55596;53.554;9.916;2023-09-30T10:07:38;15.83;;;3.63;;
17796;SDS011;55596;53.554;9.916;2023-09-30T10:10:13;15.80;;;2.57;;
17796;SDS011;55596;53.554;9.916;2023-09-30T10:12:42;11.43;;;2.80;;
17796;SDS011;55596;53.554;9.916;2023-09-30T10:17:56;10.40;;;2.57;;
17796;SDS011;55596;53.554;9.916;2023-09-30T10:20:28;11.03;;;3.17;;
17796;SDS011;55596;53.554;9.916;2023-09-30T10:25:44;10.37;;;2.43;;
17796;SDS011;55596;53.554;9.916;2023-09-30T10:31:08;11.07;;;2.83;;
17796;SDS011;55596;53.554;9.916;2023-09-30T10:33:35;15.70;;;3.10;;
17796;SDS011;55596;53.554;9.916;2023-09-30T10:36:03;8.90;;;2.37;;
17796;SDS011;55596;53.554;9.916;2023-09-30T10:38:37;9.87;;;2.87;;
17796;SDS011;55596;53.554;9.916;2023-09-30T10:41:48;12.47;;;2.90;;
17796;SDS011;55596;53.554;9.916;2023-09-30T10:46:50;9.57;;;2.57;;
17796;SDS011;55596;53.554;9.916;2023-09-30T10:52:04;11.27;;;2.43;;
17796;SDS011;55596;53.554;9.916;2023-09-30T10:54:32;9.57;;;2.50;;
17796;SDS011;55596;53.554;9.916;2023-09-30T10:57:01;10.73;;;2.57;;
17796;SDS011;55596;53.554;9.916;2023-09-30T10:59:29;10.43;;;2.40;;
17796;SDS011;55596;53.554;9.916;2023-09-30T11:01:57;8.63;;;2.37;;
17796;SDS011;55596;53.554;9.916;2023-09-30T11:04:25;12.43;;;2.60;;
17796;SDS011;55596;53.554;9.916;2023-09-30T11:06:53;8.83;;;2.23;;
17796;SDS011;55596;53.554;9.916;2023-09-30T11:09:21;11.67;;;2.63;;
17796;SDS011;55596;53.554;9.916;2023-09-30T11:11:53;11.53;;;2.57;;
17796;SDS011;55596;53.554;9.916;2023-09-30T11:14:22;9.73;;;2.73;;
17796;SDS011;55596;53.554;9.916;2023-09-30T11:16:50;14.90;;;3.10;;
17796;SDS011;55596;53.554;9.916;2023-09-30T11:19:19;10.95;;;2.60;;
17796;SDS011;55596;53.554;9.916;2023-09-30T11:21:50;11.65;;;2.35;;
17796;SDS011;55596;53.554;9.916;2023-09-30T11:24:23;9.20;;;2.42;;
17796;SDS011;55596;53.554;9.916;2023-09-30T11:26:52;11.00;;;2.50;;
17796;SDS011;55596;53.554;9.916;2023-09-30T11:29:22;11.23;;;2.30;;
17796;SDS011;55596;53.554;9.916;2023-09-30T11:31:53;14.55;;;2.55;;
17796;SDS011;55596;53.554;9.916;2023-09-30T11:34:30;10.50;;;2.00;;
17796;SDS011;55596;53.554;9.916;2023-09-30T11:36:58;6.38;;;2.28;;
17796;SDS011;55596;53.554;9.916;2023-09-30T11:39:27;8.63;;;2.20;;
17796;SDS011;55596;53.554;9.916;2023-09-30T11:41:55;10.90;;;2.10;;
17796;SDS011;55596;53.554;9.916;2023-09-30T11:44:25;8.32;;;2.10;;
17796;SDS011;55596;53.554;9.916;2023-09-30T11:46:54;7.65;;;2.05;;
17796;SDS011;55596;53.554;9.916;2023-09-30T11:49:29;12.13;;;2.80;;
17796;SDS011;55596;53.554;9.916;2023-09-30T11:52:11;11.23;;;2.47;;
17796;SDS011;55596;53.554;9.916;2023-09-30T11:54:41;7.90;;;1.83;;
17796;SDS011;55596;53.554;9.916;2023-09-30T11:57:09;8.57;;;2.22;;
17796;SDS011;55596;53.554;9.916;2023-09-30T11:59:41;10.82;;;1.88;;
17796;SDS011;55596;53.554;9.916;2023-09-30T12:02:10;8.73;;;2.13;;
17796;SDS011;55596;53.554;9.916;2023-09-30T12:04:39;8.63;;;2.28;;
17796;SDS011;55596;53.554;9.916;2023-09-30T12:07:08;7.40;;;1.98;;
17796;SDS011;55596;53.554;9.916;2023-09-30T12:09:35;7.25;;;2.22;;
17796;SDS011;55596;53.554;9.916;2023-09-30T12:12:04;11.18;;;2.78;;
17796;SDS011;55596;53.554;9.916;2023-09-30T12:14:34;7.63;;;2.38;;
17796;SDS011;55596;53.554;9.916;2023-09-30T12:17:04;8.80;;;2.40;;
17796;SDS011;55596;53.554;9.916;2023-09-30T12:19:35;7.50;;;2.10;;
17796;SDS011;55596;53.554;9.916;2023-09-30T12:22:04;9.32;;;2.53;;
17796;SDS011;55596;53.554;9.916;2023-09-30T12:24:32;6.30;;;2.03;;
17796;SDS011;55596;53.554;9.916;2023-09-30T12:27:13;4.95;;;1.92;;
17796;SDS011;55596;53.554;9.916;2023-09-30T12:29:43;10.70;;;2.30;;
17796;SDS011;55596;53.554;9.916;2023-09-30T12:32:14;10.60;;;2.33;;
17796;SDS011;55596;53.554;9.916;2023-09-30T12:34:41;7.72;;;1.98;;
17796;SDS011;55596;53.554;9.916;2023-09-30T12:37:09;10.88;;;2.20;;
17796;SDS011;55596;53.554;9.916;2023-09-30T12:39:38;9.30;;;2.13;;
17796;SDS011;55596;53.554;9.916;2023-09-30T12:42:06;9.23;;;2.00;;
17796;SDS011;55596;53.554;9.916;2023-09-30T12:44:42;4.07;;;1.42;;
17796;SDS011;55596;53.554;9.916;2023-09-30T12:47:24;5.85;;;2.00;;
17796;SDS011;55596;53.554;9.916;2023-09-30T12:49:52;5.63;;;2.00;;
17796;SDS011;55596;53.554;9.916;2023-09-30T12:52:21;7.05;;;2.10;;
17796;SDS011;55596;53.554;9.916;2023-09-30T12:54:49;7.28;;;2.05;;
17796;SDS011;55596;53.554;9.916;2023-09-30T12:57:17;5.93;;;1.70;;
17796;SDS011;55596;53.554;9.916;2023-09-30T12:59:58;6.15;;;1.80;;
17796;SDS011;55596;53.554;9.916;2023-09-30T13:02:35;7.05;;;1.80;;
17796;SDS011;55596;53.554;9.916;2023-09-30T13:05:03;10.18;;;1.92;;
17796;SDS011;55596;53.554;9.916;2023-09-30T13:07:32;8.27;;;2.15;;
17796;SDS011;55596;53.554;9.916;2023-09-30T13:10:00;10.10;;;2.33;;
17796;SDS011;55596;53.554;9.916;2023-09-30T13:12:41;8.82;;;1.85;;
17796;SDS011;55596;53.554;9.916;2023-09-30T13:15:22;7.28;;;2.22;;
17796;SDS011;55596;53.554;9.916;2023-09-30T13:18:07;8.63;;;2.08;;
17796;SDS011;55596;53.554;9.916;2023-09-30T13:20:47;13.43;;;2.65;;
17796;SDS011;55596;53.554;9.916;2023-09-30T13:23:28;9.35;;;2.38;;
17796;SDS011;55596;53.554;9.916;2023-09-30T13:26:09;6.63;;;2.08;;
17796;SDS011;55596;53.554;9.916;2023-09-30T13:28:38;7.78;;;2.30;;
17796;SDS011;55596;53.554;9.916;2023-09-30T13:31:05;7.20;;;1.73;;
17796;SDS011;55596;53.554;9.916;2023-09-30T13:33:45;7.45;;;2.00;;
17796;SDS011;55596;53.554;9.916;2023-09-30T13:36:12;7.82;;;2.17;;
17796;SDS011;55596;53.554;9.916;2023-09-30T13:38:53;11.38;;;2.30;;
17796;SDS011;55596;53.554;9.916;2023-09-30T13:41:36;8.52;;;2.25;;
17796;SDS011;55596;53.554;9.916;2023-09-30T13:44:17;11.35;;;2.67;;
17796;SDS011;55596;53.554;9.916;2023-09-30T13:46:47;5.43;;;1.38;;
17796;SDS011;55596;53.554;9.916;2023-09-30T13:49:32;7.63;;;1.95;;
17796;SDS011;55596;53.554;9.916;2023-09-30T13:52:13;6.97;;;2.30;;
17796;SDS011;55596;53.554;9.916;2023-09-30T13:54:40;7.03;;;2.00;;
17796;SDS011;55596;53.554;9.916;2023-09-30T13:57:21;8.35;;;2.42;;
17796;SDS011;55596;53.554;9.916;2023-09-30T13:59:49;8.35;;;2.08;;
17796;SDS011;55596;53.554;9.916;2023-09-30T14:02:25;9.68;;;2.40;;
17796;SDS011;55596;53.554;9.916;2023-09-30T14:05:00;8.77;;;2.10;;
17796;SDS011;55596;53.554;9.916;2023-09-30T14:07:45;7.95;;;2.17;;
17796;SDS011;55596;53.554;9.916;2023-09-30T14:10:28;8.75;;;2.30;;
17796;SDS011;55596;53.554;9.916;2023-09-30T14:13:09;8.57;;;2.33;;
17796;SDS011;55596;53.554;9.916;2023-09-30T14:15:37;9.43;;;1.90;;
17796;SDS011;55596;53.554;9.916;2023-09-30T14:18:06;8.15;;;1.98;;
17796;SDS011;55596;53.554;9.916;2023-09-30T14:26:23;10.47;;;2.50;;
17796;SDS011;55596;53.554;9.916;2023-09-30T14:28:54;10.53;;;2.03;;
17796;SDS011;55596;53.554;9.916;2023-09-30T14:31:34;8.30;;;2.33;;
17796;SDS011;55596;53.554;9.916;2023-09-30T14:34:01;8.77;;;2.05;;
17796;SDS011;55596;53.554;9.916;2023-09-30T14:36:34;9.98;;;2.08;;
17796;SDS011;55596;53.554;9.916;2023-09-30T14:39:16;6.90;;;2.00;;
17796;SDS011;55596;53.554;9.916;2023-09-30T14:41:45;7.00;;;2.20;;
17796;SDS011;55596;53.554;9.916;2023-09-30T14:44:13;9.35;;;2.40;;
17796;SDS011;55596;53.554;9.916;2023-09-30T14:46:42;11.43;;;2.47;;
17796;SDS011;55596;53.554;9.916;2023-09-30T14:49:09;8.93;;;2.63;;
17796;SDS011;55596;53.554;9.916;2023-09-30T14:51:47;12.43;;;2.30;;
17796;SDS011;55596;53.554;9.916;2023-09-30T14:54:24;9.20;;;2.20;;
17796;SDS011;55596;53.554;9.916;2023-09-30T14:59:38;5.93;;;2.13;;
17796;SDS011;55596;53.554;9.916;2023-09-30T15:02:06;9.25;;;2.55;;
17796;SDS011;55596;53.554;9.916;2023-09-30T15:04:36;11.13;;;2.42;;
17796;SDS011;55596;53.554;9.916;2023-09-30T15:07:04;9.32;;;2.10;;
17796;SDS011;55596;53.554;9.916;2023-09-30T15:09:32;8.98;;;2.40;;
17796;SDS011;55596;53.554;9.916;2023-09-30T15:12:13;7.13;;;2.83;;
17796;SDS011;55596;53.554;9.916;2023-09-30T15:14:52;10.25;;;2.55;;
17796;SDS011;55596;53.554;9.916;2023-09-30T15:17:29;10.60;;;2.90;;